createdAt,value
2023-05-12T00:01:29.709Z,100942.06
2023-05-12T00:03:57.144Z,100934.56
2023-05-12T00:06:24.230Z,100933.22
2023-05-12T00:08:51.236Z,100931.66
2023-05-12T00:11:18.130Z,100934.34
2023-05-12T00:13:45.055Z,100926.09
2023-05-12T00:16:12.062Z,100926.34
2023-05-12T00:18:39.273Z,100933.53
2023-05-12T00:21:08.784Z,100927.00
2023-05-12T00:23:36.507Z,100933.59
2023-05-12T00:26:03.436Z,100927.63
2023-05-12T00:28:30.527Z,100929.34
2023-05-12T00:30:58.279Z,100923.84
2023-05-12T00:33:25.056Z,100928.22
2023-05-12T00:35:51.909Z,100928.09
2023-05-12T00:38:20.608Z,100929.06
2023-05-12T00:40:47.640Z,100930.03
2023-05-12T00:43:14.526Z,100931.06
2023-05-12T00:45:41.556Z,100931.84
2023-05-12T00:48:08.948Z,100929.06
2023-05-12T00:50:36.246Z,100931.28
2023-05-12T00:53:04.356Z,100932.00
2023-05-12T00:55:31.810Z,100934.56
2023-05-12T00:57:59.475Z,100937.75
2023-05-12T01:00:28.079Z,100931.78
2023-05-12T01:02:58.784Z,100928.97
2023-05-12T01:05:33.016Z,100930.19
2023-05-12T01:08:00.793Z,100929.22
2023-05-12T01:10:27.603Z,100931.19
2023-05-12T01:12:54.525Z,100935.44
2023-05-12T01:15:21.513Z,100934.97
2023-05-12T01:17:54.669Z,100936.91
2023-05-12T01:20:23.400Z,100938.59
2023-05-12T01:22:50.395Z,100939.09
2023-05-12T01:25:18.184Z,100944.94
2023-05-12T01:27:45.521Z,100937.50
2023-05-12T01:30:17.123Z,100949.91
2023-05-12T01:32:44.352Z,100943.72
2023-05-12T01:35:11.459Z,100948.69
2023-05-12T01:37:42.880Z,100952.34
2023-05-12T01:40:10.305Z,100949.19
2023-05-12T01:42:40.210Z,100947.94
2023-05-12T01:45:08.512Z,100944.66
2023-05-12T01:47:35.898Z,100942.34
2023-05-12T01:50:07.102Z,100944.03
2023-05-12T01:52:34.026Z,100942.22
2023-05-12T01:55:01.218Z,100949.00
2023-05-12T01:57:33.040Z,100952.53
2023-05-12T02:00:01.601Z,100948.97
2023-05-12T02:02:31.541Z,100948.47
2023-05-12T02:04:59.856Z,100948.09
2023-05-12T02:07:26.735Z,100947.84
2023-05-12T02:09:54.045Z,100952.44
2023-05-12T02:12:22.034Z,100951.44
2023-05-12T02:14:49.136Z,100950.91
2023-05-12T02:17:17.388Z,100960.34
2023-05-12T02:19:45.373Z,100960.31
2023-05-12T02:22:14.644Z,100963.63
2023-05-12T02:24:43.304Z,100966.63
2023-05-12T02:27:10.226Z,100966.34
2023-05-12T02:29:38.226Z,100971.78
2023-05-12T02:32:06.133Z,100974.22
2023-05-12T02:34:33.172Z,100975.44
2023-05-12T02:37:00.134Z,100984.53
2023-05-12T02:39:27.094Z,100984.34
2023-05-12T02:41:55.162Z,100975.47
2023-05-12T02:44:22.691Z,100975.16
2023-05-12T02:46:50.488Z,100972.38
2023-05-12T02:49:17.369Z,100980.75
2023-05-12T02:51:49.446Z,100979.34
2023-05-12T02:54:16.610Z,100976.16
2023-05-12T02:56:44.109Z,100967.00
2023-05-12T02:59:11.096Z,100967.66
2023-05-12T03:01:38.078Z,100967.53
2023-05-12T03:04:05.041Z,100966.34
2023-05-12T03:06:32.300Z,100967.84
2023-05-12T03:09:00.096Z,100976.09
2023-05-12T03:11:27.054Z,100971.94
2023-05-12T03:13:54.402Z,100974.84
2023-05-12T03:16:21.376Z,100974.94
2023-05-12T03:18:49.965Z,100977.63
2023-05-12T03:21:17.179Z,100977.41
2023-05-12T03:23:44.724Z,100974.72
2023-05-12T03:26:11.636Z,100976.44
2023-05-12T03:28:39.807Z,100978.56
2023-05-12T03:31:06.854Z,100982.44
2023-05-12T03:33:34.148Z,100983.38
2023-05-12T03:36:01.322Z,100989.97
2023-05-12T03:38:28.338Z,100982.63
2023-05-12T03:41:08.009Z,100988.50
2023-05-12T03:43:36.268Z,100991.59
2023-05-12T03:46:04.199Z,100993.94
2023-05-12T03:48:31.519Z,100994.78
2023-05-12T03:50:58.779Z,100989.34
2023-05-12T03:53:25.821Z,100986.28
2023-05-12T03:55:52.819Z,100987.31
2023-05-12T03:58:19.745Z,100991.28
2023-05-12T04:00:50.114Z,100992.53
2023-05-12T04:03:17.732Z,100995.66
2023-05-12T04:05:44.769Z,101000.88
2023-05-12T04:08:11.669Z,100993.84
2023-05-12T04:10:40.423Z,100999.25
2023-05-12T04:13:08.353Z,100998.75
2023-05-12T04:15:38.569Z,100994.66
2023-05-12T04:18:05.483Z,100990.03
2023-05-12T04:20:32.341Z,101004.56
2023-05-12T04:22:59.193Z,101004.63
2023-05-12T04:25:26.832Z,101003.66
2023-05-12T04:27:53.661Z,101000.78
2023-05-12T04:30:25.449Z,101003.75
2023-05-12T04:32:53.841Z,101002.88
2023-05-12T04:35:20.715Z,101005.94
2023-05-12T04:37:51.027Z,101006.81
2023-05-12T04:40:18.417Z,101007.47
2023-05-12T04:42:49.491Z,101012.47
2023-05-12T04:45:16.933Z,101012.13
2023-05-12T04:47:45.807Z,101017.69
2023-05-12T04:50:20.118Z,101021.75
2023-05-12T04:52:46.976Z,101021.41
2023-05-12T04:55:20.420Z,101018.69
2023-05-12T04:57:47.517Z,101027.25
2023-05-12T05:00:15.223Z,101023.13
2023-05-12T05:02:51.287Z,101023.53
2023-05-12T05:05:18.331Z,101027.78
2023-05-12T05:07:45.584Z,101027.72
2023-05-12T05:10:12.723Z,101036.47
2023-05-12T05:12:43.105Z,101033.47
2023-05-12T05:15:11.934Z,101041.13
2023-05-12T05:17:39.254Z,101043.78
2023-05-12T05:20:11.674Z,101046.97
2023-05-12T05:22:41.146Z,101050.91
2023-05-12T05:25:08.908Z,101045.19
2023-05-12T05:27:35.855Z,101042.06
2023-05-12T05:30:02.720Z,101048.03
2023-05-12T05:32:30.453Z,101050.72
2023-05-12T05:34:57.453Z,101045.09
2023-05-12T05:37:24.608Z,101043.31
2023-05-12T05:39:51.521Z,101041.00
2023-05-12T05:42:19.202Z,101047.44
2023-05-12T05:44:47.182Z,101048.41
2023-05-12T05:47:14.756Z,101046.84
2023-05-12T05:49:42.407Z,101048.81
2023-05-12T05:52:09.658Z,101054.66
2023-05-12T05:54:36.795Z,101061.47
2023-05-12T05:57:04.244Z,101060.38
2023-05-12T05:59:33.325Z,101056.25
2023-05-12T06:02:00.360Z,101058.59
2023-05-12T06:04:27.386Z,101060.19
2023-05-12T06:06:54.265Z,101060.75
2023-05-12T06:09:21.339Z,101067.59
2023-05-12T06:11:49.200Z,101063.31
2023-05-12T06:14:17.757Z,101064.06
2023-05-12T06:16:44.694Z,101067.47
2023-05-12T06:19:13.634Z,101070.50
2023-05-12T06:21:41.291Z,101072.09
2023-05-12T06:24:08.282Z,101070.38
2023-05-12T06:26:35.108Z,101069.03
2023-05-12T06:29:01.996Z,101076.56
2023-05-12T06:31:28.904Z,101082.16
2023-05-12T06:33:55.885Z,101084.13
2023-05-12T06:36:23.046Z,101087.91
2023-05-12T06:38:51.336Z,101089.09
2023-05-12T06:41:18.304Z,101088.00
2023-05-12T06:43:45.283Z,101086.75
2023-05-12T06:46:14.825Z,101090.94
2023-05-12T06:48:42.980Z,101090.75
2023-05-12T06:51:11.399Z,101090.75
2023-05-12T06:53:38.494Z,101092.34
2023-05-12T06:56:05.727Z,101091.50
2023-05-12T06:58:32.746Z,101098.06
2023-05-12T07:00:59.613Z,101086.69
2023-05-12T07:03:26.549Z,101095.34
2023-05-12T07:05:55.511Z,101093.84
2023-05-12T07:08:22.762Z,101086.16
2023-05-12T07:10:49.976Z,101090.19
2023-05-12T07:13:17.022Z,101090.88
2023-05-12T07:15:43.976Z,101082.97
2023-05-12T07:18:11.007Z,101090.78
2023-05-12T07:20:39.263Z,101087.59
2023-05-12T07:23:06.070Z,101089.50
2023-05-12T07:25:32.991Z,101087.94
2023-05-12T07:27:59.914Z,101089.78
2023-05-12T07:30:26.878Z,101094.19
2023-05-12T07:32:53.896Z,101096.69
2023-05-12T07:35:22.616Z,101093.47
2023-05-12T07:37:49.716Z,101096.59
2023-05-12T07:40:16.626Z,101090.72
2023-05-12T07:42:43.552Z,101102.91
2023-05-12T07:45:10.783Z,101100.69
2023-05-12T07:47:37.889Z,101094.09
2023-05-12T07:50:05.138Z,101092.03
2023-05-12T07:52:32.133Z,101096.59
2023-05-12T07:54:59.161Z,101097.88
2023-05-12T07:57:26.033Z,101094.84
2023-05-12T07:59:54.371Z,101095.44
2023-05-12T08:02:21.637Z,101093.19
2023-05-12T08:04:48.609Z,101091.53
2023-05-12T08:07:16.048Z,101092.66
2023-05-12T08:09:43.024Z,101096.34
2023-05-12T08:12:09.975Z,101094.53
2023-05-12T08:14:37.367Z,101091.66
2023-05-12T08:17:05.298Z,101094.94
2023-05-12T08:19:32.505Z,101091.16
2023-05-12T08:22:00.262Z,101099.38
2023-05-12T08:24:27.581Z,101092.78
2023-05-12T08:26:55.682Z,101087.41
2023-05-12T08:29:22.884Z,101085.13
2023-05-12T08:31:54.212Z,101080.63
2023-05-12T08:34:21.342Z,101089.13
2023-05-12T08:36:50.492Z,101085.75
2023-05-12T08:39:17.415Z,101090.13
2023-05-12T08:41:57.111Z,101088.69
2023-05-12T08:44:25.057Z,101089.75
2023-05-12T08:46:53.427Z,101093.84
2023-05-12T08:49:21.591Z,101082.06
2023-05-12T08:51:57.170Z,101087.31
2023-05-12T08:54:28.681Z,101088.28
2023-05-12T08:59:27.155Z,101094.66
2023-05-12T09:01:55.631Z,101095.38
2023-05-12T09:04:22.830Z,101093.53
2023-05-12T09:06:50.367Z,101092.97
2023-05-12T09:09:20.130Z,101093.69
2023-05-12T09:11:47.844Z,101085.16
2023-05-12T09:14:25.575Z,101080.78
2023-05-12T09:16:57.298Z,101090.22
2023-05-12T09:19:24.315Z,101093.66
2023-05-12T09:21:51.538Z,101080.69
2023-05-12T09:24:18.593Z,101070.94
2023-05-12T09:26:47.735Z,101080.44
2023-05-12T09:29:21.232Z,101086.69
2023-05-12T09:31:58.294Z,101081.72
2023-05-12T09:34:41.635Z,101087.22
2023-05-12T09:37:08.802Z,101078.25
2023-05-12T09:39:36.701Z,101072.13
2023-05-12T09:42:03.947Z,101076.25
2023-05-12T09:44:32.388Z,101082.59
2023-05-12T09:47:10.522Z,101095.13
2023-05-12T09:49:38.572Z,101076.41
2023-05-12T09:52:05.853Z,101076.81
2023-05-12T09:54:34.001Z,101085.88
2023-05-12T09:57:02.873Z,101074.94
2023-05-12T09:59:34.678Z,101076.91
2023-05-12T10:02:02.982Z,101075.75
2023-05-12T10:04:41.913Z,101070.78
2023-05-12T10:07:10.728Z,101079.97
2023-05-12T10:09:40.942Z,101074.25
2023-05-12T10:12:08.884Z,101080.25
2023-05-12T10:14:37.650Z,101072.75
2023-05-12T10:17:05.817Z,101079.72
2023-05-12T10:19:34.305Z,101077.41
2023-05-12T10:22:02.094Z,101076.13
2023-05-12T10:24:29.020Z,101073.41
2023-05-12T10:26:57.118Z,101081.19
2023-05-12T10:29:30.511Z,101065.25
2023-05-12T10:31:58.175Z,101061.38
2023-05-12T10:34:30.854Z,101070.13
2023-05-12T10:36:58.576Z,101060.50
2023-05-12T10:39:33.202Z,101060.28
2023-05-12T10:42:06.199Z,101065.56
2023-05-12T10:44:33.089Z,101061.06
2023-05-12T10:47:00.358Z,101054.72
2023-05-12T10:49:39.786Z,101060.63
2023-05-12T10:52:07.702Z,101056.88
2023-05-12T10:54:44.719Z,101062.44
2023-05-12T10:57:18.583Z,101055.72
2023-05-12T10:59:57.019Z,101060.22
2023-05-12T11:02:29.349Z,101059.13
2023-05-12T11:04:59.624Z,101053.47
2023-05-12T11:07:33.121Z,101060.59
2023-05-12T11:10:02.442Z,101059.31
2023-05-12T11:12:33.961Z,101054.06
2023-05-12T11:15:02.284Z,101064.56
2023-05-12T11:17:29.489Z,101058.38
2023-05-12T11:19:56.799Z,101062.66
2023-05-12T11:22:24.295Z,101052.31
2023-05-12T11:24:53.171Z,101045.81
2023-05-12T11:27:21.470Z,101056.13
2023-05-12T11:29:57.881Z,101046.66
2023-05-12T11:32:24.854Z,101043.94
2023-05-12T11:34:53.263Z,101049.56
2023-05-12T11:37:21.580Z,101049.13
2023-05-12T11:39:48.661Z,101054.25
2023-05-12T11:42:20.112Z,101048.84
2023-05-12T11:44:49.433Z,101050.91
2023-05-12T11:47:17.447Z,101055.81
2023-05-12T11:49:48.344Z,101050.94
2023-05-12T11:52:16.485Z,101063.56
2023-05-12T11:54:53.412Z,101051.75
2023-05-12T11:57:31.869Z,101057.53
2023-05-12T12:00:07.115Z,101056.38
2023-05-12T12:02:37.617Z,101051.16
2023-05-12T12:05:06.599Z,101062.50
2023-05-12T12:07:36.710Z,101055.16
2023-05-12T12:10:17.255Z,101059.09
2023-05-12T12:12:44.344Z,101056.72
2023-05-12T12:15:11.935Z,101057.94
2023-05-12T12:17:40.577Z,101057.94
2023-05-12T12:20:09.387Z,101054.88
2023-05-12T12:22:36.356Z,101046.22
2023-05-12T12:25:03.866Z,101058.91
2023-05-12T12:27:31.165Z,101059.72
2023-05-12T12:29:58.091Z,101053.63
2023-05-12T12:32:25.290Z,101053.53
2023-05-12T12:34:53.760Z,101045.88
2023-05-12T12:37:22.051Z,101059.16
2023-05-12T12:39:48.917Z,101054.78
2023-05-12T12:42:15.989Z,101056.94
2023-05-12T12:44:43.223Z,101054.41
2023-05-12T12:47:10.217Z,101058.19
2023-05-12T12:49:37.485Z,101060.44
2023-05-12T12:52:04.729Z,101053.00
2023-05-12T12:54:31.883Z,101062.09
2023-05-12T12:56:58.722Z,101057.81
2023-05-12T12:59:25.674Z,101045.75
2023-05-12T13:01:53.106Z,101045.44
2023-05-12T13:04:23.203Z,101049.00
2023-05-12T13:06:50.210Z,101051.91
2023-05-12T13:09:19.966Z,101038.69
2023-05-12T13:11:47.919Z,101029.00
2023-05-12T13:14:14.911Z,101040.81
2023-05-12T13:16:42.455Z,101044.22
2023-05-12T13:19:10.054Z,101043.06
2023-05-12T13:21:38.112Z,101045.81
2023-05-12T13:24:05.154Z,101037.81
2023-05-12T13:26:32.102Z,101041.19
2023-05-12T13:28:58.990Z,101040.88
2023-05-12T13:31:26.248Z,101038.44
2023-05-12T13:33:53.636Z,101039.03
2023-05-12T13:36:20.949Z,101038.53
2023-05-12T13:38:48.003Z,101043.53
2023-05-12T13:41:14.863Z,101036.47
2023-05-12T13:43:41.745Z,101042.56
2023-05-12T13:46:09.684Z,101035.50
2023-05-12T13:48:36.718Z,101041.13
2023-05-12T13:51:04.757Z,101050.41
2023-05-12T13:53:32.424Z,101039.13
2023-05-12T13:56:15.556Z,101041.06
2023-05-12T13:58:42.712Z,101029.44
2023-05-12T14:01:10.426Z,101029.16
2023-05-12T14:03:37.456Z,101034.66
2023-05-12T14:06:05.170Z,101038.78
2023-05-12T14:08:32.168Z,101031.03
2023-05-12T14:10:59.196Z,101032.63
2023-05-12T14:13:27.373Z,101027.19
2023-05-12T14:15:54.525Z,101035.00
2023-05-12T14:18:22.500Z,101031.41
2023-05-12T14:20:49.708Z,101020.59
2023-05-12T14:23:16.904Z,101030.06
2023-05-12T14:25:43.842Z,101032.03
2023-05-12T14:28:10.878Z,101029.25
2023-05-12T14:30:38.008Z,101038.16
2023-05-12T14:33:05.565Z,101030.66
2023-05-12T14:35:32.828Z,101036.19
2023-05-12T14:37:59.748Z,101033.00
2023-05-12T14:40:27.683Z,101033.13
2023-05-12T14:42:55.489Z,101040.84
2023-05-12T14:45:22.839Z,101037.25
2023-05-12T14:47:50.121Z,101037.28
2023-05-12T14:50:18.573Z,101037.22
2023-05-12T14:52:45.935Z,101026.00
2023-05-12T14:55:14.146Z,101028.63
2023-05-12T14:57:41.904Z,101034.41
2023-05-12T15:00:14.689Z,101031.13
2023-05-12T15:02:43.450Z,101029.97
2023-05-12T15:05:16.501Z,101031.81
2023-05-12T15:07:43.714Z,101025.28
2023-05-12T15:10:11.421Z,101031.47
2023-05-12T15:12:38.371Z,101033.25
2023-05-12T15:15:09.080Z,101031.81
2023-05-12T15:17:36.103Z,101035.78
2023-05-12T15:20:04.407Z,101035.97
2023-05-12T15:22:32.527Z,101034.97
2023-05-12T15:24:59.914Z,101029.47
2023-05-12T15:27:27.394Z,101034.53
2023-05-12T15:29:54.272Z,101032.69
2023-05-12T15:32:21.049Z,101028.81
2023-05-12T15:34:49.518Z,101032.91
2023-05-12T15:37:16.887Z,101028.31
2023-05-12T15:39:44.036Z,101041.00
2023-05-12T15:42:12.583Z,101037.06
2023-05-12T15:44:41.406Z,101037.19
2023-05-12T15:47:08.305Z,101038.88
2023-05-12T15:49:35.404Z,101029.88
2023-05-12T15:52:02.719Z,101028.00
2023-05-12T15:54:30.980Z,101028.56
2023-05-12T15:56:57.940Z,101031.75
2023-05-12T15:59:25.225Z,101031.81
2023-05-12T16:01:52.496Z,101033.84
2023-05-12T16:04:19.894Z,101026.16
2023-05-12T16:06:46.971Z,101028.94
2023-05-12T16:09:13.896Z,101024.72
2023-05-12T16:11:40.966Z,101028.47
2023-05-12T16:14:08.187Z,101025.41
2023-05-12T16:16:43.256Z,101023.53
2023-05-12T16:19:10.305Z,101018.16
2023-05-12T16:21:39.982Z,101017.44
2023-05-12T16:24:08.928Z,101010.50
2023-05-12T16:26:37.674Z,101014.41
2023-05-12T16:29:04.627Z,101021.91
2023-05-12T16:31:31.679Z,101015.06
2023-05-12T16:33:58.793Z,101012.53
2023-05-12T16:36:25.791Z,101019.22
2023-05-12T16:38:53.025Z,101017.50
2023-05-12T16:41:20.311Z,101007.88
2023-05-12T16:43:48.408Z,101010.03
2023-05-12T16:46:15.279Z,101018.94
2023-05-12T16:48:42.211Z,101010.75
2023-05-12T16:51:10.475Z,101021.28
2023-05-12T16:53:38.485Z,101015.28
2023-05-12T16:56:05.589Z,101017.63
2023-05-12T16:58:34.728Z,101013.38
2023-05-12T17:01:02.204Z,101015.84
2023-05-12T17:03:29.645Z,101023.97
2023-05-12T17:05:56.947Z,101023.72
2023-05-12T17:08:25.126Z,101024.88
2023-05-12T17:10:52.073Z,101023.94
2023-05-12T17:13:19.016Z,101024.09
2023-05-12T17:15:46.164Z,101028.19
2023-05-12T17:18:13.369Z,101016.50
2023-05-12T17:20:41.082Z,101025.63
2023-05-12T17:23:08.526Z,101023.13
2023-05-12T17:25:36.835Z,101029.19
2023-05-12T17:28:04.837Z,101018.53
2023-05-12T17:30:32.490Z,101019.44
2023-05-12T17:32:59.534Z,101022.84
2023-05-12T17:35:26.821Z,101023.78
2023-05-12T17:37:55.805Z,101025.34
2023-05-12T17:40:23.556Z,101028.09
2023-05-12T17:42:50.851Z,101039.56
2023-05-12T17:45:18.227Z,101039.28
2023-05-12T17:47:45.720Z,101040.72
2023-05-12T17:50:15.087Z,101042.78
2023-05-12T17:52:44.400Z,101044.22
2023-05-12T17:55:11.926Z,101049.50
2023-05-12T17:57:38.810Z,101045.75
2023-05-12T18:00:10.300Z,101046.69
2023-05-12T18:02:44.659Z,101048.38
2023-05-12T18:05:12.873Z,101053.00
2023-05-12T18:07:39.866Z,101052.50
2023-05-12T18:10:09.711Z,101054.44
2023-05-12T18:12:38.020Z,101053.19
2023-05-12T18:15:06.563Z,101071.59
2023-05-12T18:17:33.532Z,101066.06
2023-05-12T18:20:00.890Z,101064.84
2023-05-12T18:22:28.099Z,101073.84
2023-05-12T18:24:55.552Z,101065.38
2023-05-12T18:27:22.474Z,101072.84
2023-05-12T18:29:49.340Z,101073.00
2023-05-12T18:32:16.578Z,101070.25
2023-05-12T18:34:45.945Z,101080.34
2023-05-12T18:37:15.728Z,101082.19
2023-05-12T18:39:43.237Z,101081.97
2023-05-12T18:42:12.284Z,101083.94
2023-05-12T18:44:41.429Z,101092.53
2023-05-12T18:47:09.104Z,101097.22
2023-05-12T18:49:37.722Z,101098.81
2023-05-12T18:52:04.763Z,101104.81
2023-05-12T18:54:31.883Z,101108.78
2023-05-12T18:57:02.462Z,101098.31
2023-05-12T18:59:29.442Z,101110.47
2023-05-12T19:01:56.418Z,101116.41
2023-05-12T19:04:23.729Z,101112.94
2023-05-12T19:06:51.256Z,101118.41
2023-05-12T19:09:18.147Z,101115.72
2023-05-12T19:11:45.172Z,101123.50
2023-05-12T19:14:12.281Z,101133.66
2023-05-12T19:16:40.432Z,101130.78
2023-05-12T19:19:08.791Z,101122.50
2023-05-12T19:21:35.828Z,101132.47
2023-05-12T19:24:02.812Z,101129.13
2023-05-12T19:26:30.185Z,101141.06
2023-05-12T19:28:57.090Z,101136.25
2023-05-12T19:31:24.156Z,101134.28
2023-05-12T19:33:52.207Z,101138.84
2023-05-12T19:36:19.286Z,101142.81
2023-05-12T19:38:46.186Z,101135.16
2023-05-12T19:41:13.086Z,101147.56
2023-05-12T19:43:40.092Z,101145.81
2023-05-12T19:46:08.171Z,101141.72
2023-05-12T19:48:35.205Z,101140.63
2023-05-12T19:51:02.355Z,101142.59
2023-05-12T19:53:30.870Z,101148.97
2023-05-12T19:55:58.364Z,101155.50
2023-05-12T19:58:25.290Z,101153.41
2023-05-12T20:00:53.081Z,101163.31
2023-05-12T20:03:20.282Z,101167.28
2023-05-12T20:05:48.545Z,101161.63
2023-05-12T20:08:16.774Z,101161.34
2023-05-12T20:10:44.815Z,101163.47
2023-05-12T20:13:11.976Z,101157.50
2023-05-12T20:15:40.296Z,101167.44
2023-05-12T20:18:07.358Z,101161.88
2023-05-12T20:20:34.376Z,101168.94
2023-05-12T20:23:01.575Z,101166.38
2023-05-12T20:25:32.887Z,101165.66
2023-05-12T20:28:00.512Z,101163.81
2023-05-12T20:30:28.549Z,101171.44
2023-05-12T20:32:55.596Z,101171.19
2023-05-12T20:35:22.874Z,101166.06
2023-05-12T20:37:50.088Z,101169.75
2023-05-12T20:40:17.272Z,101172.41
2023-05-12T20:42:46.150Z,101168.88
2023-05-12T20:45:15.225Z,101174.81
2023-05-12T20:47:42.793Z,101179.28
2023-05-12T20:50:12.793Z,101179.28
2023-05-12T20:52:41.277Z,101172.47
2023-05-12T20:55:09.384Z,101180.38
2023-05-12T20:57:36.363Z,101186.19
2023-05-12T21:00:04.453Z,101184.63
2023-05-12T21:02:32.858Z,101184.69
2023-05-12T21:04:59.710Z,101184.16
2023-05-12T21:07:27.126Z,101191.97
2023-05-12T21:09:54.306Z,101183.63
2023-05-12T21:12:21.324Z,101182.97
2023-05-12T21:14:48.785Z,101191.41
2023-05-12T21:17:16.916Z,101192.38
2023-05-12T21:19:44.752Z,101195.19
2023-05-12T21:22:13.099Z,101198.72
2023-05-12T21:24:40.354Z,101198.06
2023-05-12T21:27:08.469Z,101201.25
2023-05-12T21:29:35.780Z,101209.56
2023-05-12T21:32:03.101Z,101206.59
2023-05-12T21:34:31.926Z,101198.28
2023-05-12T21:37:00.672Z,101206.28
2023-05-12T21:39:28.392Z,101208.81
2023-05-12T21:41:55.546Z,101198.44
2023-05-12T21:44:22.508Z,101203.38
2023-05-12T21:46:49.372Z,101209.03
2023-05-12T21:49:16.735Z,101207.91
2023-05-12T21:51:43.885Z,101203.47
2023-05-12T21:54:12.689Z,101205.63
2023-05-12T21:56:39.682Z,101207.59
2023-05-12T21:59:07.835Z,101195.84
2023-05-12T22:01:35.911Z,101201.59
2023-05-12T22:04:03.160Z,101199.66
2023-05-12T22:06:30.845Z,101202.81
2023-05-12T22:08:57.755Z,101209.03
2023-05-12T22:11:24.988Z,101197.09
2023-05-12T22:13:52.161Z,101202.47
2023-05-12T22:16:23.640Z,101198.13
2023-05-12T22:18:53.124Z,101193.03
2023-05-12T22:21:20.139Z,101197.28
2023-05-12T22:23:48.785Z,101199.56
2023-05-12T22:26:16.065Z,101206.06
2023-05-12T22:28:43.138Z,101196.31
2023-05-12T22:31:10.172Z,101198.59
2023-05-12T22:33:37.214Z,101200.13
2023-05-12T22:36:04.823Z,101193.75
2023-05-12T22:38:32.048Z,101193.41
2023-05-12T22:41:00.048Z,101200.63
2023-05-12T22:43:27.445Z,101201.41
2023-05-12T22:45:57.222Z,101202.00
2023-05-12T22:48:26.707Z,101200.91
2023-05-12T22:50:54.446Z,101205.81
2023-05-12T22:53:21.441Z,101197.75
2023-05-12T22:55:49.954Z,101197.78
2023-05-12T22:58:17.109Z,101204.50
2023-05-12T23:00:44.139Z,101207.97
2023-05-12T23:03:11.760Z,101208.06
2023-05-12T23:05:38.747Z,101209.91
2023-05-12T23:08:05.908Z,101202.59
2023-05-12T23:10:32.852Z,101203.69
2023-05-12T23:12:59.769Z,101203.78
2023-05-12T23:15:26.717Z,101202.88
2023-05-12T23:17:53.786Z,101201.03
2023-05-12T23:20:21.416Z,101208.88
2023-05-12T23:22:48.500Z,101204.75
2023-05-12T23:25:15.540Z,101198.28
2023-05-12T23:27:43.560Z,101200.38
2023-05-12T23:30:10.684Z,101198.31
2023-05-12T23:32:39.077Z,101202.31
2023-05-12T23:35:06.861Z,101206.25
2023-05-12T23:37:33.922Z,101203.34
2023-05-12T23:40:02.328Z,101197.22
2023-05-12T23:42:29.394Z,101193.91
2023-05-12T23:44:59.874Z,101195.28
2023-05-12T23:47:28.724Z,101196.47
2023-05-12T23:49:55.628Z,101194.53
2023-05-12T23:52:22.963Z,101191.63
2023-05-12T23:54:49.803Z,101185.53
2023-05-12T23:57:17.174Z,101198.34
2023-05-12T23:59:44.694Z,101197.34
